sensor_id;sensor_type;location;lat;lon;timestamp;temperature;humidity
418;DHT22;49;48.530;9.200;2023-04-15T00:01:19;13.80;20.40
418;DHT22;49;48.530;9.200;2023-04-15T00:03:46;13.30;18.70
418;DHT22;49;48.530;9.200;2023-04-15T00:06:13;13.40;22.20
418;DHT22;49;48.530;9.200;2023-04-15T00:08:40;13.70;21.70
418;DHT22;49;48.530;9.200;2023-04-15T00:11:07;13.80;24.90
418;DHT22;49;48.530;9.200;2023-04-15T00:13:34;14.30;23.60
418;DHT22;49;48.530;9.200;2023-04-15T00:16:02;14.60;20.30
418;DHT22;49;48.530;9.200;2023-04-15T00:18:29;14.50;21.30
418;DHT22;49;48.530;9.200;2023-04-15T00:20:56;14.20;20.40
418;DHT22;49;48.530;9.200;2023-04-15T00:23:23;13.60;22.50
418;DHT22;49;48.530;9.200;2023-04-15T00:25:51;13.90;22.80
418;DHT22;49;48.530;9.200;2023-04-15T00:28:18;13.80;22.10
418;DHT22;49;48.530;9.200;2023-04-15T00:30:45;13.90;21.50
418;DHT22;49;48.530;9.200;2023-04-15T00:33:14;14.00;22.50
418;DHT22;49;48.530;9.200;2023-04-15T00:35:42;13.90;18.90
418;DHT22;49;48.530;9.200;2023-04-15T00:38:09;13.50;20.00
418;DHT22;49;48.530;9.200;2023-04-15T00:40:36;13.10;22.50
418;DHT22;49;48.530;9.200;2023-04-15T00:43:03;13.40;23.90
418;DHT22;49;48.530;9.200;2023-04-15T00:45:31;13.60;24.40
418;DHT22;49;48.530;9.200;2023-04-15T00:47:59;14.00;23.20
418;DHT22;49;48.530;9.200;2023-04-15T00:50:27;14.20;23.00
418;DHT22;49;48.530;9.200;2023-04-15T00:52:54;13.90;18.10
418;DHT22;49;48.530;9.200;2023-04-15T00:55:21;13.70;20.70
418;DHT22;49;48.530;9.200;2023-04-15T00:57:49;13.60;21.80
418;DHT22;49;48.530;9.200;2023-04-15T01:00:16;13.20;17.70
418;DHT22;49;48.530;9.200;2023-04-15T01:02:44;12.80;20.20
418;DHT22;49;48.530;9.200;2023-04-15T01:05:12;13.20;24.60
418;DHT22;49;48.530;9.200;2023-04-15T01:07:43;13.50;23.60
418;DHT22;49;48.530;9.200;2023-04-15T01:10:11;13.80;21.80
418;DHT22;49;48.530;9.200;2023-04-15T01:12:39;13.20;17.90
418;DHT22;49;48.530;9.200;2023-04-15T01:15:07;12.70;18.60
418;DHT22;49;48.530;9.200;2023-04-15T01:17:35;12.80;23.80
418;DHT22;49;48.530;9.200;2023-04-15T01:20:03;13.10;21.00
418;DHT22;49;48.530;9.200;2023-04-15T01:22:32;13.10;19.90
418;DHT22;49;48.530;9.200;2023-04-15T01:25:06;13.30;22.00
418;DHT22;49;48.530;9.200;2023-04-15T01:27:38;13.60;22.20
418;DHT22;49;48.530;9.200;2023-04-15T01:30:06;13.90;20.80
418;DHT22;49;48.530;9.200;2023-04-15T01:32:33;13.80;21.10
418;DHT22;49;48.530;9.200;2023-04-15T01:35:01;13.90;22.20
418;DHT22;49;48.530;9.200;2023-04-15T01:37:28;13.60;20.50
418;DHT22;49;48.530;9.200;2023-04-15T01:39:55;13.20;20.00
418;DHT22;49;48.530;9.200;2023-04-15T01:42:23;13.00;21.70
418;DHT22;49;48.530;9.200;2023-04-15T01:44:51;13.10;21.90
418;DHT22;49;48.530;9.200;2023-04-15T01:47:19;12.70;21.40
418;DHT22;49;48.530;9.200;2023-04-15T01:49:46;12.50;20.40
418;DHT22;49;48.530;9.200;2023-04-15T01:52:13;12.40;19.80
418;DHT22;49;48.530;9.200;2023-04-15T01:54:40;12.30;21.90
418;DHT22;49;48.530;9.200;2023-04-15T01:57:07;12.40;21.20
418;DHT22;49;48.530;9.200;2023-04-15T01:59:34;12.50;22.90
418;DHT22;49;48.530;9.200;2023-04-15T02:02:03;12.40;24.60
418;DHT22;49;48.530;9.200;2023-04-15T02:04:30;12.50;24.70
418;DHT22;49;48.530;9.200;2023-04-15T02:06:58;12.30;20.60
418;DHT22;49;48.530;9.200;2023-04-15T02:09:26;12.20;23.30
418;DHT22;49;48.530;9.200;2023-04-15T02:11:53;12.40;22.00
418;DHT22;49;48.530;9.200;2023-04-15T02:14:20;12.70;26.00
418;DHT22;49;48.530;9.200;2023-04-15T02:16:47;13.20;25.70
418;DHT22;49;48.530;9.200;2023-04-15T02:19:15;13.60;25.10
418;DHT22;49;48.530;9.200;2023-04-15T02:21:42;13.90;24.30
418;DHT22;49;48.530;9.200;2023-04-15T02:24:09;13.60;22.70
418;DHT22;49;48.530;9.200;2023-04-15T02:26:37;13.60;22.50
418;DHT22;49;48.530;9.200;2023-04-15T02:29:04;14.00;23.80
418;DHT22;49;48.530;9.200;2023-04-15T02:31:31;14.00;22.20
418;DHT22;49;48.530;9.200;2023-04-15T02:34:01;13.60;20.80
418;DHT22;49;48.530;9.200;2023-04-15T02:36:31;13.40;22.60
418;DHT22;49;48.530;9.200;2023-04-15T02:38:59;13.30;23.10
418;DHT22;49;48.530;9.200;2023-04-15T02:41:26;13.40;21.00
418;DHT22;49;48.530;9.200;2023-04-15T02:43:53;13.30;22.70
418;DHT22;49;48.530;9.200;2023-04-15T02:46:20;13.00;24.30
418;DHT22;49;48.530;9.200;2023-04-15T02:48:47;13.10;23.00
418;DHT22;49;48.530;9.200;2023-04-15T02:51:15;12.70;22.40
418;DHT22;49;48.530;9.200;2023-04-15T02:53:44;12.10;20.70
418;DHT22;49;48.530;9.200;2023-04-15T02:56:11;11.60;21.00
418;DHT22;49;48.530;9.200;2023-04-15T02:58:40;11.50;22.40
418;DHT22;49;48.530;9.200;2023-04-15T03:01:07;11.40;23.90
418;DHT22;49;48.530;9.200;2023-04-15T03:03:34;11.30;23.60
418;DHT22;49;48.530;9.200;2023-04-15T03:06:01;11.00;21.50
418;DHT22;49;48.530;9.200;2023-04-15T03:08:28;11.10;25.00
418;DHT22;49;48.530;9.200;2023-04-15T03:10:58;10.90;21.90
418;DHT22;49;48.530;9.200;2023-04-15T03:13:27;10.80;22.20
418;DHT22;49;48.530;9.200;2023-04-15T03:15:54;10.90;26.40
418;DHT22;49;48.530;9.200;2023-04-15T03:18:21;11.20;22.80
418;DHT22;49;48.530;9.200;2023-04-15T03:20:48;11.20;26.00
418;DHT22;49;48.530;9.200;2023-04-15T03:23:15;11.30;23.60
418;DHT22;49;48.530;9.200;2023-04-15T03:25:43;10.80;25.80
418;DHT22;49;48.530;9.200;2023-04-15T03:28:11;10.50;23.20
418;DHT22;49;48.530;9.200;2023-04-15T03:30:38;10.30;25.20
418;DHT22;49;48.530;9.200;2023-04-15T03:33:06;10.20;24.50
418;DHT22;49;48.530;9.200;2023-04-15T03:35:33;10.10;23.90
418;DHT22;49;48.530;9.200;2023-04-15T03:38:00;9.70;25.20
418;DHT22;49;48.530;9.200;2023-04-15T03:40:27;9.70;26.10
418;DHT22;49;48.530;9.200;2023-04-15T03:42:55;9.80;28.60
418;DHT22;49;48.530;9.200;2023-04-15T03:45:24;10.00;27.80
418;DHT22;49;48.530;9.200;2023-04-15T03:47:51;10.20;28.30
418;DHT22;49;48.530;9.200;2023-04-15T03:50:18;10.50;27.40
418;DHT22;49;48.530;9.200;2023-04-15T03:52:45;10.70;24.90
418;DHT22;49;48.530;9.200;2023-04-15T03:55:12;10.70;25.70
418;DHT22;49;48.530;9.200;2023-04-15T03:57:40;10.90;26.80
418;DHT22;49;48.530;9.200;2023-04-15T04:00:08;11.00;26.00
418;DHT22;49;48.530;9.200;2023-04-15T04:02:36;11.20;26.40
418;DHT22;49;48.530;9.200;2023-04-15T04:05:04;11.10;22.80
418;DHT22;49;48.530;9.200;2023-04-15T04:07:30;11.10;26.10
418;DHT22;49;48.530;9.200;2023-04-15T04:09:57;11.00;23.60
418;DHT22;49;48.530;9.200;2023-04-15T04:12:24;11.00;28.40
418;DHT22;49;48.530;9.200;2023-04-15T04:14:51;11.00;22.20
418;DHT22;49;48.530;9.200;2023-04-15T04:17:18;11.20;24.00
418;DHT22;49;48.530;9.200;2023-04-15T04:19:47;11.00;22.70
418;DHT22;49;48.530;9.200;2023-04-15T04:22:14;11.10;26.60
418;DHT22;49;48.530;9.200;2023-04-15T04:24:41;11.00;24.60
418;DHT22;49;48.530;9.200;2023-04-15T04:27:08;10.80;22.90
418;DHT22;49;48.530;9.200;2023-04-15T04:29:35;10.90;25.10
418;DHT22;49;48.530;9.200;2023-04-15T04:32:02;10.80;27.50
418;DHT22;49;48.530;9.200;2023-04-15T04:34:29;10.70;23.80
418;DHT22;49;48.530;9.200;2023-04-15T04:36:58;10.70;26.90
418;DHT22;49;48.530;9.200;2023-04-15T04:39:25;10.80;23.90
418;DHT22;49;48.530;9.200;2023-04-15T04:41:52;10.90;23.50
418;DHT22;49;48.530;9.200;2023-04-15T04:44:19;10.80;23.20
418;DHT22;49;48.530;9.200;2023-04-15T04:46:46;10.70;23.40
418;DHT22;49;48.530;9.200;2023-04-15T04:49:13;10.90;24.10
418;DHT22;49;48.530;9.200;2023-04-15T04:51:40;11.00;26.60
418;DHT22;49;48.530;9.200;2023-04-15T04:54:09;11.30;23.90
418;DHT22;49;48.530;9.200;2023-04-15T04:56:36;11.30;25.50
418;DHT22;49;48.530;9.200;2023-04-15T04:59:04;11.10;26.40
418;DHT22;49;48.530;9.200;2023-04-15T05:01:31;11.10;23.40
418;DHT22;49;48.530;9.200;2023-04-15T05:03:58;11.00;24.20
418;DHT22;49;48.530;9.200;2023-04-15T05:06:26;10.80;25.10
418;DHT22;49;48.530;9.200;2023-04-15T05:08:55;10.70;24.20
418;DHT22;49;48.530;9.200;2023-04-15T05:11:23;10.30;22.40
418;DHT22;49;48.530;9.200;2023-04-15T05:13:51;10.00;26.20
418;DHT22;49;48.530;9.200;2023-04-15T05:16:18;10.10;26.70
418;DHT22;49;48.530;9.200;2023-04-15T05:18:45;10.80;26.30
418;DHT22;49;48.530;9.200;2023-04-15T05:21:12;11.20;26.50
418;DHT22;49;48.530;9.200;2023-04-15T05:23:39;11.20;23.30
418;DHT22;49;48.530;9.200;2023-04-15T05:26:06;11.70;21.00
418;DHT22;49;48.530;9.200;2023-04-15T05:28:35;12.30;21.80
418;DHT22;49;48.530;9.200;2023-04-15T05:31:02;12.80;24.50
418;DHT22;49;48.530;9.200;2023-04-15T05:33:29;13.30;21.00
418;DHT22;49;48.530;9.200;2023-04-15T05:35:56;13.40;20.90
418;DHT22;49;48.530;9.200;2023-04-15T05:38:23;13.80;19.70
418;DHT22;49;48.530;9.200;2023-04-15T05:40:49;14.20;20.60
418;DHT22;49;48.530;9.200;2023-04-15T05:43:16;14.60;18.30
418;DHT22;49;48.530;9.200;2023-04-15T05:45:45;15.00;17.90
418;DHT22;49;48.530;9.200;2023-04-15T05:48:12;15.70;17.00
418;DHT22;49;48.530;9.200;2023-04-15T05:50:40;16.20;16.20
418;DHT22;49;48.530;9.200;2023-04-15T05:53:07;16.50;14.30
418;DHT22;49;48.530;9.200;2023-04-15T05:55:34;16.60;13.70
418;DHT22;49;48.530;9.200;2023-04-15T05:58:01;16.20;15.30
418;DHT22;49;48.530;9.200;2023-04-15T06:00:29;16.40;13.40
418;DHT22;49;48.530;9.200;2023-04-15T06:02:58;16.40;13.60
418;DHT22;49;48.530;9.200;2023-04-15T06:05:25;17.00;14.20
418;DHT22;49;48.530;9.200;2023-04-15T06:07:55;17.60;12.50
418;DHT22;49;48.530;9.200;2023-04-15T06:10:22;18.20;11.50
418;DHT22;49;48.530;9.200;2023-04-15T06:12:49;18.20;11.10
418;DHT22;49;48.530;9.200;2023-04-15T06:15:18;17.60;10.80
418;DHT22;49;48.530;9.200;2023-04-15T06:17:45;17.10;11.20
418;DHT22;49;48.530;9.200;2023-04-15T06:20:14;16.70;12.10
418;DHT22;49;48.530;9.200;2023-04-15T06:22:42;17.00;12.30
418;DHT22;49;48.530;9.200;2023-04-15T06:25:09;16.70;12.80
418;DHT22;49;48.530;9.200;2023-04-15T06:27:36;16.80;12.60
418;DHT22;49;48.530;9.200;2023-04-15T06:30:04;17.00;12.30
418;DHT22;49;48.530;9.200;2023-04-15T06:32:31;17.10;12.60
418;DHT22;49;48.530;9.200;2023-04-15T06:34:58;16.90;14.10
418;DHT22;49;48.530;9.200;2023-04-15T06:37:27;16.60;12.30
418;DHT22;49;48.530;9.200;2023-04-15T06:39:54;16.60;12.30
418;DHT22;49;48.530;9.200;2023-04-15T06:42:22;16.20;12.70
418;DHT22;49;48.530;9.200;2023-04-15T06:44:49;15.90;13.20
418;DHT22;49;48.530;9.200;2023-04-15T06:47:16;15.70;13.70
418;DHT22;49;48.530;9.200;2023-04-15T06:49:44;15.70;14.30
418;DHT22;49;48.530;9.200;2023-04-15T06:52:11;15.90;15.30
418;DHT22;49;48.530;9.200;2023-04-15T06:54:40;16.10;15.30
418;DHT22;49;48.530;9.200;2023-04-15T06:57:07;16.00;15.00
418;DHT22;49;48.530;9.200;2023-04-15T06:59:34;16.00;14.00
418;DHT22;49;48.530;9.200;2023-04-15T07:02:01;15.90;14.40
418;DHT22;49;48.530;9.200;2023-04-15T07:04:28;15.80;15.10
418;DHT22;49;48.530;9.200;2023-04-15T07:06:55;16.00;14.50
418;DHT22;49;48.530;9.200;2023-04-15T07:09:23;16.30;14.70
418;DHT22;49;48.530;9.200;2023-04-15T07:11:56;16.50;13.60
418;DHT22;49;48.530;9.200;2023-04-15T07:14:24;16.10;15.20
418;DHT22;49;48.530;9.200;2023-04-15T07:16:52;16.20;14.20
418;DHT22;49;48.530;9.200;2023-04-15T07:19:19;15.60;14.40
418;DHT22;49;48.530;9.200;2023-04-15T07:21:52;15.40;16.90
418;DHT22;49;48.530;9.200;2023-04-15T07:24:22;15.80;15.10
418;DHT22;49;48.530;9.200;2023-04-15T07:26:56;15.90;15.00
418;DHT22;49;48.530;9.200;2023-04-15T07:29:27;16.00;15.80
418;DHT22;49;48.530;9.200;2023-04-15T07:31:56;15.60;15.60
418;DHT22;49;48.530;9.200;2023-04-15T07:34:29;16.20;16.20
418;DHT22;49;48.530;9.200;2023-04-15T07:36:57;16.60;15.40
418;DHT22;49;48.530;9.200;2023-04-15T07:39:36;16.80;14.50
418;DHT22;49;48.530;9.200;2023-04-15T07:42:07;17.50;14.20
418;DHT22;49;48.530;9.200;2023-04-15T07:44:40;18.50;12.50
418;DHT22;49;48.530;9.200;2023-04-15T07:47:13;19.30;12.90
418;DHT22;49;48.530;9.200;2023-04-15T07:49:48;19.80;11.70
418;DHT22;49;48.530;9.200;2023-04-15T07:52:20;19.80;11.80
418;DHT22;49;48.530;9.200;2023-04-15T07:54:49;20.80;11.30
418;DHT22;49;48.530;9.200;2023-04-15T07:57:23;21.30;10.30
418;DHT22;49;48.530;9.200;2023-04-15T07:59:53;21.90;9.50
418;DHT22;49;48.530;9.200;2023-04-15T08:02:26;22.50;8.60
418;DHT22;49;48.530;9.200;2023-04-15T08:04:53;23.00;8.70
418;DHT22;49;48.530;9.200;2023-04-15T08:07:22;23.40;7.50
418;DHT22;49;48.530;9.200;2023-04-15T08:09:51;23.70;7.30
418;DHT22;49;48.530;9.200;2023-04-15T08:12:24;23.50;7.10
418;DHT22;49;48.530;9.200;2023-04-15T08:15:03;22.90;7.60
418;DHT22;49;48.530;9.200;2023-04-15T08:17:32;22.60;7.80
418;DHT22;49;48.530;9.200;2023-04-15T08:20:00;21.80;8.80
418;DHT22;49;48.530;9.200;2023-04-15T08:22:33;21.40;9.00
418;DHT22;49;48.530;9.200;2023-04-15T08:25:06;21.40;9.50
418;DHT22;49;48.530;9.200;2023-04-15T08:27:35;21.40;9.50
418;DHT22;49;48.530;9.200;2023-04-15T08:30:02;21.40;9.30
418;DHT22;49;48.530;9.200;2023-04-15T08:32:34;21.20;9.10
418;DHT22;49;48.530;9.200;2023-04-15T08:35:01;21.20;10.10
418;DHT22;49;48.530;9.200;2023-04-15T08:37:32;20.40;10.20
418;DHT22;49;48.530;9.200;2023-04-15T08:40:04;20.30;10.80
418;DHT22;49;48.530;9.200;2023-04-15T08:42:37;20.50;10.60
418;DHT22;49;48.530;9.200;2023-04-15T08:45:11;21.00;10.50
418;DHT22;49;48.530;9.200;2023-04-15T08:47:47;21.30;9.20
418;DHT22;49;48.530;9.200;2023-04-15T08:50:19;21.20;9.90
418;DHT22;49;48.530;9.200;2023-04-15T08:52:48;20.90;10.30
418;DHT22;49;48.530;9.200;2023-04-15T08:55:21;20.50;10.40
418;DHT22;49;48.530;9.200;2023-04-15T08:58:07;20.10;10.70
418;DHT22;49;48.530;9.200;2023-04-15T09:00:40;20.20;10.80
418;DHT22;49;48.530;9.200;2023-04-15T09:03:15;20.10;10.70
418;DHT22;49;48.530;9.200;2023-04-15T09:05:46;20.40;10.90
418;DHT22;49;48.530;9.200;2023-04-15T09:08:16;20.40;12.10
418;DHT22;49;48.530;9.200;2023-04-15T09:10:44;20.30;11.80
418;DHT22;49;48.530;9.200;2023-04-15T09:13:13;19.30;13.20
418;DHT22;49;48.530;9.200;2023-04-15T09:15:41;19.10;12.60
418;DHT22;49;48.530;9.200;2023-04-15T09:18:19;19.20;12.80
418;DHT22;49;48.530;9.200;2023-04-15T09:21:05;19.50;12.60
418;DHT22;49;48.530;9.200;2023-04-15T09:23:35;19.10;12.90
418;DHT22;49;48.530;9.200;2023-04-15T09:26:05;18.90;12.70
418;DHT22;49;48.530;9.200;2023-04-15T09:28:47;18.40;13.90
418;DHT22;49;48.530;9.200;2023-04-15T09:31:18;18.70;14.40
418;DHT22;49;48.530;9.200;2023-04-15T09:34:02;19.30;13.90
418;DHT22;49;48.530;9.200;2023-04-15T09:36:52;19.40;13.40
418;DHT22;49;48.530;9.200;2023-04-15T09:39:47;19.10;13.70
418;DHT22;49;48.530;9.200;2023-04-15T09:42:19;18.80;13.30
418;DHT22;49;48.530;9.200;2023-04-15T09:44:55;18.80;13.30
418;DHT22;49;48.530;9.200;2023-04-15T09:47:48;19.40;12.30
418;DHT22;49;48.530;9.200;2023-04-15T09:50:20;19.80;11.70
418;DHT22;49;48.530;9.200;2023-04-15T09:52:47;20.40;11.10
418;DHT22;49;48.530;9.200;2023-04-15T09:55:17;20.60;11.30
418;DHT22;49;48.530;9.200;2023-04-15T09:57:52;20.70;9.60
418;DHT22;49;48.530;9.200;2023-04-15T10:00:21;21.00;9.90
418;DHT22;49;48.530;9.200;2023-04-15T10:02:49;20.20;10.20
418;DHT22;49;48.530;9.200;2023-04-15T10:05:30;20.00;10.40
418;DHT22;49;48.530;9.200;2023-04-15T10:08:17;20.40;9.80
418;DHT22;49;48.530;9.200;2023-04-15T10:10:56;20.90;11.00
418;DHT22;49;48.530;9.200;2023-04-15T10:13:29;20.50;10.30
418;DHT22;49;48.530;9.200;2023-04-15T10:16:03;20.60;9.90
418;DHT22;49;48.530;9.200;2023-04-15T10:18:37;20.90;9.00
418;DHT22;49;48.530;9.200;2023-04-15T10:21:13;21.00;8.40
418;DHT22;49;48.530;9.200;2023-04-15T10:23:52;20.60;9.60
418;DHT22;49;48.530;9.200;2023-04-15T10:26:26;20.50;9.50
418;DHT22;49;48.530;9.200;2023-04-15T10:28:57;20.90;9.50
418;DHT22;49;48.530;9.200;2023-04-15T10:31:38;20.90;9.70
418;DHT22;49;48.530;9.200;2023-04-15T10:34:14;20.60;8.30
418;DHT22;49;48.530;9.200;2023-04-15T10:36:59;20.20;8.40
418;DHT22;49;48.530;9.200;2023-04-15T10:39:42;20.20;8.80
418;DHT22;49;48.530;9.200;2023-04-15T10:42:19;20.20;9.60
418;DHT22;49;48.530;9.200;2023-04-15T10:44:55;20.20;10.10
418;DHT22;49;48.530;9.200;2023-04-15T10:47:33;20.10;9.30
418;DHT22;49;48.530;9.200;2023-04-15T10:50:01;19.90;9.60
418;DHT22;49;48.530;9.200;2023-04-15T10:52:29;19.30;9.60
418;DHT22;49;48.530;9.200;2023-04-15T10:55:12;19.50;9.40
418;DHT22;49;48.530;9.200;2023-04-15T10:57:48;19.80;9.20
418;DHT22;49;48.530;9.200;2023-04-15T11:00:18;20.00;10.10
418;DHT22;49;48.530;9.200;2023-04-15T11:02:54;19.90;8.50
418;DHT22;49;48.530;9.200;2023-04-15T11:05:54;20.00;8.30
418;DHT22;49;48.530;9.200;2023-04-15T11:08:58;20.00;8.50
418;DHT22;49;48.530;9.200;2023-04-15T11:14:41;20.20;7.90
418;DHT22;49;48.530;9.200;2023-04-15T11:17:11;20.10;7.90
418;DHT22;49;48.530;9.200;2023-04-15T11:19:41;20.10;8.10
418;DHT22;49;48.530;9.200;2023-04-15T11:22:09;19.90;9.60
418;DHT22;49;48.530;9.200;2023-04-15T11:24:46;20.00;8.80
418;DHT22;49;48.530;9.200;2023-04-15T11:27:21;20.10;8.40
418;DHT22;49;48.530;9.200;2023-04-15T11:29:53;20.10;7.90
418;DHT22;49;48.530;9.200;2023-04-15T11:32:25;20.50;7.90
418;DHT22;49;48.530;9.200;2023-04-15T11:35:02;20.60;9.20
418;DHT22;49;48.530;9.200;2023-04-15T11:37:31;20.50;8.10
418;DHT22;49;48.530;9.200;2023-04-15T11:40:06;20.50;7.80
418;DHT22;49;48.530;9.200;2023-04-15T11:42:37;20.60;7.70
418;DHT22;49;48.530;9.200;2023-04-15T11:45:07;20.80;8.10
418;DHT22;49;48.530;9.200;2023-04-15T11:47:43;21.10;7.80
418;DHT22;49;48.530;9.200;2023-04-15T11:50:16;21.40;6.50
418;DHT22;49;48.530;9.200;2023-04-15T11:52:54;21.20;5.60
418;DHT22;49;48.530;9.200;2023-04-15T11:55:22;20.90;5.50
418;DHT22;49;48.530;9.200;2023-04-15T11:58:05;20.30;6.30
418;DHT22;49;48.530;9.200;2023-04-15T12:00:39;19.60;7.60
418;DHT22;49;48.530;9.200;2023-04-15T12:03:21;19.40;6.60
418;DHT22;49;48.530;9.200;2023-04-15T12:06:20;19.00;8.40
418;DHT22;49;48.530;9.200;2023-04-15T12:09:07;19.10;8.50
418;DHT22;49;48.530;9.200;2023-04-15T12:11:44;18.80;9.30
418;DHT22;49;48.530;9.200;2023-04-15T12:14:17;18.30;10.30
418;DHT22;49;48.530;9.200;2023-04-15T12:16:46;18.50;10.80
418;DHT22;49;48.530;9.200;2023-04-15T12:19:29;18.80;9.80
418;DHT22;49;48.530;9.200;2023-04-15T12:22:05;19.20;8.80
418;DHT22;49;48.530;9.200;2023-04-15T12:24:34;19.30;8.60
418;DHT22;49;48.530;9.200;2023-04-15T12:27:03;19.20;8.40
418;DHT22;49;48.530;9.200;2023-04-15T12:29:34;19.10;8.70
418;DHT22;49;48.530;9.200;2023-04-15T12:32:05;18.90;7.80
418;DHT22;49;48.530;9.200;2023-04-15T12:34:48;19.00;8.90
418;DHT22;49;48.530;9.200;2023-04-15T12:37:23;19.20;8.40
418;DHT22;49;48.530;9.200;2023-04-15T12:39:53;19.20;9.20
418;DHT22;49;48.530;9.200;2023-04-15T12:42:24;18.90;9.40
418;DHT22;49;48.530;9.200;2023-04-15T12:45:02;19.10;9.70
418;DHT22;49;48.530;9.200;2023-04-15T12:47:30;19.30;9.20
418;DHT22;49;48.530;9.200;2023-04-15T12:50:03;19.50;8.80
418;DHT22;49;48.530;9.200;2023-04-15T12:52:36;19.40;7.30
418;DHT22;49;48.530;9.200;2023-04-15T12:55:06;19.10;6.90
418;DHT22;49;48.530;9.200;2023-04-15T12:57:40;19.50;8.00
418;DHT22;49;48.530;9.200;2023-04-15T13:00:15;19.90;6.80
418;DHT22;49;48.530;9.200;2023-04-15T13:02:56;19.60;6.30
418;DHT22;49;48.530;9.200;2023-04-15T13:05:38;19.10;7.00
418;DHT22;49;48.530;9.200;2023-04-15T13:08:14;18.70;9.00
418;DHT22;49;48.530;9.200;2023-04-15T13:10:43;18.60;8.90
418;DHT22;49;48.530;9.200;2023-04-15T13:13:10;18.50;9.40
418;DHT22;49;48.530;9.200;2023-04-15T13:15:59;18.60;9.80
418;DHT22;49;48.530;9.200;2023-04-15T13:18:27;18.50;7.90
418;DHT22;49;48.530;9.200;2023-04-15T13:20:55;17.20;13.70
418;DHT22;49;48.530;9.200;2023-04-15T13:23:24;16.00;17.20
418;DHT22;49;48.530;9.200;2023-04-15T13:25:51;14.80;20.40
418;DHT22;49;48.530;9.200;2023-04-15T13:28:19;13.70;23.70
418;DHT22;49;48.530;9.200;2023-04-15T13:30:48;13.20;25.10
418;DHT22;49;48.530;9.200;2023-04-15T13:33:17;12.90;26.00
418;DHT22;49;48.530;9.200;2023-04-15T13:35:48;12.90;27.10
418;DHT22;49;48.530;9.200;2023-04-15T13:38:15;13.10;26.80
418;DHT22;49;48.530;9.200;2023-04-15T13:40:44;13.60;26.30
418;DHT22;49;48.530;9.200;2023-04-15T13:43:11;14.00;25.70
418;DHT22;49;48.530;9.200;2023-04-15T13:45:38;14.10;24.70
418;DHT22;49;48.530;9.200;2023-04-15T13:48:05;13.90;24.70
418;DHT22;49;48.530;9.200;2023-04-15T13:50:32;14.20;21.30
418;DHT22;49;48.530;9.200;2023-04-15T13:53:08;14.30;21.60
418;DHT22;49;48.530;9.200;2023-04-15T13:55:39;14.60;20.30
418;DHT22;49;48.530;9.200;2023-04-15T13:58:13;14.20;20.60
418;DHT22;49;48.530;9.200;2023-04-15T14:00:40;14.50;20.20
418;DHT22;49;48.530;9.200;2023-04-15T14:03:07;14.60;19.70
418;DHT22;49;48.530;9.200;2023-04-15T14:05:37;14.80;19.30
418;DHT22;49;48.530;9.200;2023-04-15T14:08:18;15.10;18.60
418;DHT22;49;48.530;9.200;2023-04-15T14:10:45;15.20;18.20
418;DHT22;49;48.530;9.200;2023-04-15T14:13:15;15.00;17.60
418;DHT22;49;48.530;9.200;2023-04-15T14:15:46;15.00;17.30
418;DHT22;49;48.530;9.200;2023-04-15T14:18:13;14.80;17.20
418;DHT22;49;48.530;9.200;2023-04-15T14:20:42;14.60;17.60
418;DHT22;49;48.530;9.200;2023-04-15T14:23:28;14.40;19.10
418;DHT22;49;48.530;9.200;2023-04-15T14:26:26;14.60;18.20
418;DHT22;49;48.530;9.200;2023-04-15T14:29:00;15.40;17.40
418;DHT22;49;48.530;9.200;2023-04-15T14:31:29;15.90;16.20
418;DHT22;49;48.530;9.200;2023-04-15T14:34:01;16.10;15.60
418;DHT22;49;48.530;9.200;2023-04-15T14:36:31;16.50;15.60
418;DHT22;49;48.530;9.200;2023-04-15T14:39:08;16.80;14.80
418;DHT22;49;48.530;9.200;2023-04-15T14:41:43;17.10;13.50
418;DHT22;49;48.530;9.200;2023-04-15T14:44:15;17.20;12.80
418;DHT22;49;48.530;9.200;2023-04-15T14:46:45;17.40;12.70
418;DHT22;49;48.530;9.200;2023-04-15T14:49:36;17.00;12.80
418;DHT22;49;48.530;9.200;2023-04-15T14:52:08;16.90;13.40
418;DHT22;49;48.530;9.200;2023-04-15T14:54:38;17.10;12.80
418;DHT22;49;48.530;9.200;2023-04-15T14:57:08;17.00;12.30
418;DHT22;49;48.530;9.200;2023-04-15T14:59:38;17.20;13.50
418;DHT22;49;48.530;9.200;2023-04-15T15:02:22;17.30;11.90
418;DHT22;49;48.530;9.200;2023-04-15T15:04:56;17.30;12.30
418;DHT22;49;48.530;9.200;2023-04-15T15:07:27;17.20;11.50
418;DHT22;49;48.530;9.200;2023-04-15T15:10:02;17.10;12.20
418;DHT22;49;48.530;9.200;2023-04-15T15:12:35;17.30;12.80
418;DHT22;49;48.530;9.200;2023-04-15T15:15:10;17.50;10.10
418;DHT22;49;48.530;9.200;2023-04-15T15:17:59;17.20;9.20
418;DHT22;49;48.530;9.200;2023-04-15T15:20:31;16.70;9.90
418;DHT22;49;48.530;9.200;2023-04-15T15:23:06;16.50;7.60
418;DHT22;49;48.530;9.200;2023-04-15T15:25:39;16.30;9.30
418;DHT22;49;48.530;9.200;2023-04-15T15:28:06;16.60;9.50
418;DHT22;49;48.530;9.200;2023-04-15T15:30:40;16.50;7.40
418;DHT22;49;48.530;9.200;2023-04-15T15:33:10;15.80;9.00
418;DHT22;49;48.530;9.200;2023-04-15T15:35:46;14.90;10.50
418;DHT22;49;48.530;9.200;2023-04-15T15:38:28;14.20;13.00
418;DHT22;49;48.530;9.200;2023-04-15T15:41:00;13.90;13.60
418;DHT22;49;48.530;9.200;2023-04-15T15:43:27;13.80;13.50
418;DHT22;49;48.530;9.200;2023-04-15T15:45:56;13.90;13.80
418;DHT22;49;48.530;9.200;2023-04-15T15:48:23;13.70;13.90
418;DHT22;49;48.530;9.200;2023-04-15T15:50:52;13.80;14.90
418;DHT22;49;48.530;9.200;2023-04-15T15:53:22;13.90;16.80
418;DHT22;49;48.530;9.200;2023-04-15T15:55:53;14.30;15.80
418;DHT22;49;48.530;9.200;2023-04-15T15:58:20;14.50;14.70
418;DHT22;49;48.530;9.200;2023-04-15T16:00:47;14.40;14.90
418;DHT22;49;48.530;9.200;2023-04-15T16:03:17;14.40;14.90
418;DHT22;49;48.530;9.200;2023-04-15T16:05:44;14.70;14.70
418;DHT22;49;48.530;9.200;2023-04-15T16:08:14;14.90;15.80
418;DHT22;49;48.530;9.200;2023-04-15T16:10:41;15.30;15.10
418;DHT22;49;48.530;9.200;2023-04-15T16:13:10;15.00;15.10
418;DHT22;49;48.530;9.200;2023-04-15T16:15:39;14.90;15.00
418;DHT22;49;48.530;9.200;2023-04-15T16:18:09;14.90;14.80
418;DHT22;49;48.530;9.200;2023-04-15T16:20:44;15.10;15.40
418;DHT22;49;48.530;9.200;2023-04-15T16:23:15;15.20;16.90
418;DHT22;49;48.530;9.200;2023-04-15T16:25:43;15.30;15.90
418;DHT22;49;48.530;9.200;2023-04-15T16:28:11;15.10;15.60
418;DHT22;49;48.530;9.200;2023-04-15T16:30:44;15.30;16.20
418;DHT22;49;48.530;9.200;2023-04-15T16:33:11;15.20;14.70
418;DHT22;49;48.530;9.200;2023-04-15T16:35:45;14.70;16.70
418;DHT22;49;48.530;9.200;2023-04-15T16:38:19;14.60;16.30
418;DHT22;49;48.530;9.200;2023-04-15T16:40:51;15.20;15.50
418;DHT22;49;48.530;9.200;2023-04-15T16:43:23;15.40;16.30
418;DHT22;49;48.530;9.200;2023-04-15T16:45:51;15.30;14.70
418;DHT22;49;48.530;9.200;2023-04-15T16:48:22;15.10;16.20
418;DHT22;49;48.530;9.200;2023-04-15T16:50:56;15.20;16.20
418;DHT22;49;48.530;9.200;2023-04-15T16:53:30;15.10;16.70
418;DHT22;49;48.530;9.200;2023-04-15T16:55:59;15.30;17.10
418;DHT22;49;48.530;9.200;2023-04-15T16:58:33;15.10;17.50
418;DHT22;49;48.530;9.200;2023-04-15T17:01:05;15.20;16.30
418;DHT22;49;48.530;9.200;2023-04-15T17:03:37;15.00;17.50
418;DHT22;49;48.530;9.200;2023-04-15T17:06:06;14.60;18.30
418;DHT22;49;48.530;9.200;2023-04-15T17:08:33;14.50;18.10
418;DHT22;49;48.530;9.200;2023-04-15T17:11:02;14.20;20.00
418;DHT22;49;48.530;9.200;2023-04-15T17:13:31;14.40;19.70
418;DHT22;49;48.530;9.200;2023-04-15T17:16:00;14.20;21.00
418;DHT22;49;48.530;9.200;2023-04-15T17:18:31;13.70;22.40
418;DHT22;49;48.530;9.200;2023-04-15T17:21:03;13.10;24.40
418;DHT22;49;48.530;9.200;2023-04-15T17:23:32;13.40;26.30